Time;durP1;ratioP1;P1;durP2;ratioP2;P2;SDS_P1;SDS_P2;PMS_P1;PMS_P2;Temp;Humidity;BMP_temperature;BMP_pressure;BME280_temperature;BME280_humidity;BME280_pressure;Samples;Min_cycle;Max_cycle;Signal;HPM_P1;HPM_P2
2022/05/11 00:00:13;;;;;;;14.85;11.07;;;;;;;21.52;53.51;99947.63;4973171;28;20891;-84
2022/05/11 00:02:40;;;;;;;14.18;10.48;;;;;;;21.52;53.94;99945.75;4982607;28;20046;-85
2022/05/11 00:05:09;;;;;;;13.50;11.68;;;;;;;21.50;53.77;99945.13;4977369;28;20061;-85
2022/05/11 00:07:36;;;;;;;12.75;10.63;;;;;;;21.48;53.68;99946.38;4989619;28;20045;-85
2022/05/11 00:10:11;;;;;;;14.93;10.38;;;;;;;21.41;54.09;99949.88;4968457;28;20046;-85
2022/05/11 00:12:42;;;;;;;12.80;11.45;;;;;;;21.38;54.15;99950.28;4978203;28;20046;-84
2022/05/11 00:15:10;;;;;;;16.33;10.90;;;;;;;21.37;54.45;99945.06;4981197;28;20053;-84
2022/05/11 00:17:37;;;;;;;13.82;11.40;;;;;;;21.38;53.90;99947.59;4985154;28;20461;-85
2022/05/11 00:20:09;;;;;;;14.07;11.57;;;;;;;21.32;54.14;99942.97;4967276;28;20511;-85
2022/05/11 00:22:37;;;;;;;12.27;10.77;;;;;;;21.35;53.88;99939.03;4975290;28;20133;-85
2022/05/11 00:25:06;;;;;;;12.55;11.13;;;;;;;21.35;54.10;99941.75;4984357;28;20046;-84
2022/05/11 00:27:33;;;;;;;12.30;10.57;;;;;;;21.32;54.12;99944.81;4967653;28;20554;-84
2022/05/11 00:30:00;;;;;;;13.73;11.20;;;;;;;21.30;53.92;99939.66;4991072;28;20047;-85
2022/05/11 00:32:27;;;;;;;12.30;11.00;;;;;;;21.30;53.96;99939.66;4961891;28;20042;-84
2022/05/11 00:34:54;;;;;;;13.75;11.57;;;;;;;21.27;53.64;99939.19;4987563;28;20073;-83
2022/05/11 00:37:21;;;;;;;12.68;10.57;;;;;;;21.25;54.20;99939.41;4972188;28;20042;-84
2022/05/11 00:39:48;;;;;;;11.05;9.63;;;;;;;21.22;54.08;99931.72;4978623;28;20160;-85
2022/05/11 00:42:15;;;;;;;11.43;10.23;;;;;;;21.21;54.07;99932.75;4984378;28;20046;-84
2022/05/11 00:44:42;;;;;;;15.60;12.05;;;;;;;21.17;54.06;99926.09;4966858;28;20081;-84
2022/05/11 00:47:20;;;;;;;12.55;10.82;;;;;;;21.11;54.55;99922.31;4960244;28;20046;-85
2022/05/11 00:49:56;;;;;;;15.48;11.48;;;;;;;21.09;54.43;99928.97;4990439;28;20069;-85
2022/05/11 00:52:47;;;;;;;15.57;11.68;;;;;;;21.03;54.82;99922.50;4980608;28;20054;-85
2022/05/11 00:55:17;;;;;;;14.57;11.55;;;;;;;21.04;54.56;99926.88;4963619;28;20046;-84
2022/05/11 00:57:56;;;;;;;14.05;11.45;;;;;;;21.01;54.56;99919.16;4993017;28;20048;-84
2022/05/11 01:00:23;;;;;;;13.85;11.25;;;;;;;21.01;54.49;99917.31;4962468;28;20107;-85
2022/05/11 01:03:02;;;;;;;13.20;11.75;;;;;;;20.99;54.63;99914.00;4977737;28;20047;-84
2022/05/11 01:05:28;;;;;;;15.90;11.88;;;;;;;21.00;54.45;99912.13;4973251;28;20827;-84
2022/05/11 01:07:56;;;;;;;14.73;11.75;;;;;;;20.98;54.61;99920.41;4980521;28;20093;-85
2022/05/11 01:10:26;;;;;;;14.50;11.40;;;;;;;20.95;54.38;99920.81;4981933;28;20494;-85
2022/05/11 01:12:55;;;;;;;13.68;11.55;;;;;;;20.93;54.61;99917.47;4979183;28;20046;-84
2022/05/11 01:15:22;;;;;;;12.52;10.55;;;;;;;20.91;54.46;99921.41;4977608;28;20038;-85
2022/05/11 01:17:49;;;;;;;12.65;11.35;;;;;;;20.91;54.56;99916.00;4975993;28;20038;-84
2022/05/11 01:20:19;;;;;;;13.30;11.93;;;;;;;20.86;54.60;99913.91;4960306;28;20050;-84
2022/05/11 01:22:55;;;;;;;11.77;10.57;;;;;;;20.82;54.84;99915.38;4965899;28;20057;-85
2022/05/11 01:25:23;;;;;;;13.23;10.93;;;;;;;20.83;54.58;99916.19;4979299;28;20557;-84
2022/05/11 01:27:50;;;;;;;14.20;11.45;;;;;;;20.77;54.59;99915.97;4940416;28;20312;-85
2022/05/11 01:30:21;;;;;;;15.32;11.40;;;;;;;20.75;54.83;99909.94;4952693;28;20091;-85
2022/05/11 01:32:49;;;;;;;13.07;10.75;;;;;;;20.74;54.63;99916.38;4970911;28;20395;-85
2022/05/11 01:35:20;;;;;;;15.25;11.13;;;;;;;20.71;54.88;99916.78;4968260;28;20050;-81
2022/05/11 01:38:14;;;;;;;14.93;11.07;;;;;;;20.70;54.94;99911.56;4971008;28;20117;-80
2022/05/11 01:40:42;;;;;;;13.88;11.05;;;;;;;20.70;54.82;99911.56;4936673;28;20613;-81
2022/05/11 01:43:19;;;;;;;13.18;10.75;;;;;;;20.68;54.97;99908.22;4950183;28;20046;-80
2022/05/11 01:45:46;;;;;;;13.38;11.50;;;;;;;20.70;54.98;99920.47;4971950;28;20518;-81
2022/05/11 01:48:13;;;;;;;12.45;11.05;;;;;;;20.68;54.93;99909.06;4949940;28;20125;-86
2022/05/11 01:50:40;;;;;;;12.73;11.38;;;;;;;20.67;54.87;99909.28;4960816;28;20059;-87
2022/05/11 01:53:07;;;;;;;17.98;11.98;;;;;;;20.65;55.07;99911.31;4953242;28;20042;-87
2022/05/11 01:55:34;;;;;;;14.30;11.02;;;;;;;20.64;54.82;99899.72;4945382;28;20523;-84
2022/05/11 01:58:06;;;;;;;14.10;11.73;;;;;;;20.62;55.00;99909.03;4941247;28;20115;-87
2022/05/11 02:00:34;;;;;;;;;;;;;;;20.55;55.41;99904.41;4964661;28;20051;-87
2022/05/11 02:03:00;;;;;;;20.17;11.52;;;;;;;20.60;55.02;99906.53;4979562;28;20381;-79
2022/05/11 02:08:13;;;;;;;15.55;11.07;;;;;;;20.55;55.01;99906.28;4978674;28;20452;-81
2022/05/11 02:10:39;;;;;;;14.77;11.68;;;;;;;20.51;54.94;99902.31;4971316;28;20050;-80
2022/05/11 02:13:06;;;;;;;14.00;11.82;;;;;;;20.45;55.18;99909.31;4960732;28;20523;-81
2022/05/11 02:15:34;;;;;;;13.13;11.50;;;;;;;20.43;55.35;99897.06;4973734;28;20085;-80
2022/05/11 02:18:01;;;;;;;19.00;11.60;;;;;;;20.37;55.62;99904.91;4977729;28;20113;-85
2022/05/11 02:20:28;;;;;;;18.27;12.63;;;;;;;20.32;55.73;99901.97;4976495;28;20085;-83
2022/05/11 02:22:55;;;;;;;19.45;12.75;;;;;;;20.29;55.52;99899.69;4975927;28;20049;-85
2022/05/11 02:25:22;;;;;;;15.27;10.88;;;;;;;20.26;55.68;99901.94;4959497;28;20046;-84
2022/05/11 02:27:51;;;;;;;14.45;11.73;;;;;;;20.22;55.53;99897.97;4955119;28;20098;-84
2022/05/11 02:30:21;;;;;;;16.38;12.07;;;;;;;20.19;55.52;99901.88;4959919;28;20057;-86
2022/05/11 02:32:48;;;;;;;15.02;11.85;;;;;;;20.15;55.58;99898.75;4918814;28;20058;-86
2022/05/11 02:35:18;;;;;;;12.88;11.55;;;;;;;20.12;55.60;99898.31;4946757;28;20053;-86
2022/05/11 02:37:47;;;;;;;13.77;11.55;;;;;;;20.12;55.73;99898.31;4952064;28;20051;-86
2022/05/11 02:40:16;;;;;;;13.57;11.50;;;;;;;20.08;55.75;99908.66;4951511;28;20490;-87
2022/05/11 02:42:43;;;;;;;14.82;10.98;;;;;;;20.05;56.00;99895.56;4980311;28;20516;-86
2022/05/11 02:45:10;;;;;;;14.52;10.85;;;;;;;20.02;55.90;99903.22;4957399;28;20951;-86
2022/05/11 02:47:38;;;;;;;14.02;11.07;;;;;;;19.99;55.68;99901.72;4974026;28;20085;-87
2022/05/11 02:50:06;;;;;;;14.65;11.85;;;;;;;19.98;55.83;99900.06;4975876;28;20038;-87
2022/05/11 02:52:33;;;;;;;17.05;12.93;;;;;;;19.96;56.04;99896.75;4978664;28;20050;-86
2022/05/11 02:55:00;;;;;;;16.38;11.65;;;;;;;19.95;56.17;99903.16;4976389;28;20067;-87
2022/05/11 02:57:27;;;;;;;16.20;12.40;;;;;;;19.93;56.02;99911.44;4974900;28;20050;-87
2022/05/11 02:59:53;;;;;;;13.10;10.93;;;;;;;19.91;55.97;99901.88;4963376;28;20050;-87
2022/05/11 03:02:21;;;;;;;14.43;11.65;;;;;;;19.91;55.99;99901.88;4964875;28;20046;-88
2022/05/11 03:04:49;;;;;;;14.25;12.13;;;;;;;19.88;56.22;99903.09;4971454;28;20047;-88
2022/05/11 03:07:16;;;;;;;15.00;12.45;;;;;;;19.90;56.10;99901.06;4970252;28;20410;-88
2022/05/11 03:09:43;;;;;;;15.80;11.80;;;;;;;19.90;56.05;99894.84;4974007;28;20043;-88
2022/05/11 03:12:11;;;;;;;12.85;11.50;;;;;;;19.89;56.27;99888.59;4974152;28;20090;-82
2022/05/11 03:14:39;;;;;;;15.50;11.65;;;;;;;19.89;56.28;99901.25;4978865;28;20411;-81
2022/05/11 03:17:08;;;;;;;15.18;11.75;;;;;;;19.87;56.20;99892.50;4959788;28;20548;-81
2022/05/11 03:19:40;;;;;;;13.48;11.93;;;;;;;19.86;56.17;99902.47;4956551;28;20054;-78
2022/05/11 03:22:07;;;;;;;15.43;12.63;;;;;;;19.86;56.14;99896.25;4972053;28;20050;-82
2022/05/11 03:24:34;;;;;;;14.68;11.45;;;;;;;19.79;56.47;99896.19;4974171;28;20464;-83
2022/05/11 03:27:01;;;;;;;13.07;11.60;;;;;;;19.79;56.52;99887.25;4969238;28;20045;-82
2022/05/11 03:29:28;;;;;;;13.00;11.60;;;;;;;19.72;56.85;99890.75;4967941;28;20054;-82
2022/05/11 03:34:42;;;;;;;14.05;10.95;;;;;;;19.69;56.75;99888.44;4963073;28;20039;-82
2022/05/11 03:37:12;;;;;;;13.73;11.27;;;;;;;19.67;56.63;99887.81;4950759;28;20051;-81
2022/05/11 03:39:39;;;;;;;17.85;12.48;;;;;;;19.64;56.68;99884.63;4983481;28;20053;-81
2022/05/11 03:42:07;;;;;;;15.00;12.43;;;;;;;19.61;56.68;99895.78;4961122;28;20138;-82
2022/05/11 03:44:34;;;;;;;14.60;12.48;;;;;;;19.59;56.36;99890.59;4977020;28;20057;-81
2022/05/11 03:47:01;;;;;;;13.70;12.25;;;;;;;19.56;56.63;99890.13;4978220;28;20051;-82
2022/05/11 03:49:28;;;;;;;15.55;12.07;;;;;;;19.56;56.62;99896.34;4980736;28;20067;-82
2022/05/11 03:51:55;;;;;;;15.23;12.80;;;;;;;19.53;56.55;99885.97;4963203;28;20078;-81
2022/05/11 03:54:21;;;;;;;19.00;12.80;;;;;;;19.51;56.68;99888.88;4961121;28;20046;-81
2022/05/11 03:56:50;;;;;;;14.20;12.00;;;;;;;19.49;56.75;99884.72;4965586;28;20808;-82
2022/05/11 03:59:17;;;;;;;15.48;12.43;;;;;;;19.49;56.75;99892.78;4992559;28;20046;-82
2022/05/11 04:01:43;;;;;;;19.58;12.02;;;;;;;19.48;56.83;99891.09;4970507;28;20040;-81
2022/05/11 04:04:11;;;;;;;15.40;12.15;;;;;;;19.46;56.91;99894.00;4958473;28;20058;-82
2022/05/11 04:11:16;;;;;;;13.80;12.18;;;;;;;19.37;57.32;99889.75;4959840;28;20045;-79
2022/05/11 04:13:44;;;;;;;14.90;12.00;;;;;;;19.40;57.02;99883.16;4944538;28;20050;-79
2022/05/11 04:16:11;;;;;;;14.18;12.57;;;;;;;19.38;57.04;99886.03;4954960;28;20050;-79
2022/05/11 04:18:38;;;;;;;15.70;12.48;;;;;;;19.39;57.02;99897.66;4976210;28;20042;-80
2022/05/11 04:21:05;;;;;;;14.88;11.77;;;;;;;19.37;57.21;99886.25;4969048;28;20046;-86
2022/05/11 04:23:32;;;;;;;14.07;12.30;;;;;;;19.38;57.48;99885.19;4973508;28;20129;-79
2022/05/11 04:25:59;;;;;;;14.90;12.50;;;;;;;19.40;57.39;99891.22;4968730;28;20047;-84
2022/05/11 04:28:26;;;;;;;15.30;11.77;;;;;;;19.38;57.36;99894.09;4963166;28;20048;-79
2022/05/11 04:31:03;;;;;;;15.57;12.18;;;;;;;19.40;57.73;99894.75;4956900;28;20402;-79
2022/05/11 04:33:30;;;;;;;13.50;11.48;;;;;;;19.42;57.56;99876.56;4980944;28;20459;-79
2022/05/11 04:35:57;;;;;;;14.93;12.07;;;;;;;19.47;57.51;99881.38;4990306;28;20043;-79
2022/05/11 04:38:23;;;;;;;16.30;12.90;;;;;;;19.51;57.58;99888.88;4936937;28;20086;-79
2022/05/11 04:40:50;;;;;;;18.65;12.82;;;;;;;19.54;57.46;99887.66;4970726;28;20959;-80
2022/05/11 04:43:17;;;;;;;14.68;12.38;;;;;;;19.57;57.45;99881.03;4951143;28;20050;-79
2022/05/11 04:45:45;;;;;;;15.38;12.55;;;;;;;19.57;57.51;99889.97;4943222;28;20046;-84
2022/05/11 04:48:13;;;;;;;14.82;12.40;;;;;;;19.56;57.37;99882.06;4949675;28;20073;-84
2022/05/11 04:50:42;;;;;;;15.10;11.77;;;;;;;19.56;57.44;99892.84;4980608;28;20053;-79
2022/05/11 04:53:10;;;;;;;15.73;12.60;;;;;;;19.52;57.49;99882.44;4935922;28;20034;-79
2022/05/11 04:55:37;;;;;;;15.68;11.60;;;;;;;19.53;57.54;99891.34;4962220;28;20050;-79
2022/05/11 04:58:05;;;;;;;14.10;11.48;;;;;;;19.53;58.05;99891.34;4966789;28;20069;-84
2022/05/11 05:00:33;;;;;;;19.80;13.30;;;;;;;19.54;57.90;99895.72;4974010;28;20043;-84
2022/05/11 05:03:02;;;;;;;18.77;12.75;;;;;;;19.58;57.79;99904.25;4976126;28;20502;-84
2022/05/11 05:05:32;;;;;;;16.80;13.93;;;;;;;19.59;57.82;99900.53;4973963;28;20109;-82
2022/05/11 05:07:59;;;;;;;20.15;13.45;;;;;;;19.62;57.79;99906.38;4961499;28;20111;-80
2022/05/11 05:10:27;;;;;;;22.17;13.07;;;;;;;19.60;57.41;99900.34;4967329;28;20046;-79
2022/05/11 05:12:53;;;;;;;18.48;14.88;;;;;;;19.61;57.19;99901.16;4973691;28;20046;-79
2022/05/11 05:15:20;;;;;;;19.38;16.30;;;;;;;19.58;57.33;99901.56;4975647;28;20537;-79
2022/05/11 05:17:50;;;;;;;19.90;15.82;;;;;;;19.60;57.01;99907.59;4979214;28;20046;-79
2022/05/11 05:20:18;;;;;;;18.77;14.90;;;;;;;19.63;57.14;99905.34;4957748;28;20043;-80
2022/05/11 05:22:44;;;;;;;18.85;14.25;;;;;;;19.67;57.13;99906.66;4960092;28;20057;-79
2022/05/11 05:25:11;;;;;;;19.50;15.02;;;;;;;19.72;57.00;99906.91;4940043;28;20137;-80
2022/05/11 05:27:38;;;;;;;18.63;15.15;;;;;;;19.77;56.96;99905.47;4965616;28;20066;-80
2022/05/11 05:32:51;;;;;;;18.30;14.60;;;;;;;19.80;56.70;99902.41;4962587;28;20054;-79
2022/05/11 05:35:19;;;;;;;18.33;14.80;;;;;;;19.81;56.62;99898.69;4976718;28;20391;-84
2022/05/11 05:37:45;;;;;;;18.83;14.90;;;;;;;19.84;57.08;99907.22;4977061;28;20042;-84
2022/05/11 05:40:12;;;;;;;21.60;14.77;;;;;;;19.90;56.98;99911.84;4959862;28;20094;-84
2022/05/11 05:42:39;;;;;;;18.40;14.73;;;;;;;19.93;56.93;99908.75;4973523;28;20115;-84
2022/05/11 05:45:07;;;;;;;18.00;14.60;;;;;;;19.99;56.88;99899.03;4971779;28;20054;-84
2022/05/11 05:47:35;;;;;;;17.48;14.75;;;;;;;20.02;56.78;99904.03;4961732;28;20141;-84
2022/05/11 05:50:02;;;;;;;16.70;14.13;;;;;;;20.04;56.91;99906.53;4978887;28;20054;-84
2022/05/11 05:52:35;;;;;;;18.30;13.95;;;;;;;20.09;57.06;99906.78;4949797;28;20059;-84
2022/05/11 05:55:03;;;;;;;19.08;15.23;;;;;;;20.11;57.18;99908.25;4940518;28;20134;-85
2022/05/11 05:57:31;;;;;;;18.95;14.80;;;;;;;20.14;56.96;99904.34;4982500;28;20123;-85
2022/05/11 05:59:57;;;;;;;24.85;15.48;;;;;;;20.14;56.81;99909.72;4954325;28;20047;-86
2022/05/11 06:02:24;;;;;;;18.38;14.77;;;;;;;20.15;56.67;99903.31;4979502;28;20517;-85
2022/05/11 06:04:51;;;;;;;21.05;14.77;;;;;;;20.17;57.26;99903.94;4981886;28;20124;-79
2022/05/11 06:07:19;;;;;;;27.50;15.40;;;;;;;20.20;57.51;99900.88;4940494;28;20039;-79
2022/05/11 06:09:46;;;;;;;16.45;13.98;;;;;;;20.23;57.69;99903.16;4977504;28;20041;-80
2022/05/11 06:12:15;;;;;;;21.15;14.35;;;;;;;20.31;57.59;99900.31;4973372;28;20685;-80
2022/05/11 06:14:43;;;;;;;19.90;14.50;;;;;;;20.37;57.48;99904.06;4934305;28;20055;-79
2022/05/11 06:17:18;;;;;;;18.67;14.02;;;;;;;20.36;57.83;99897.84;4945614;28;20137;-80
2022/05/11 06:19:45;;;;;;;16.30;13.48;;;;;;;20.49;57.81;99899.81;4973080;28;20077;-80
2022/05/11 06:22:12;;;;;;;18.80;13.60;;;;;;;20.55;57.81;99900.91;4958872;28;20054;-80
2022/05/11 06:24:39;;;;;;;16.95;13.73;;;;;;;20.58;57.92;99903.19;4952422;28;20043;-80
2022/05/11 06:27:07;;;;;;;17.77;14.15;;;;;;;20.63;58.10;99897.19;4973244;28;20085;-80
2022/05/11 06:29:34;;;;;;;16.58;14.63;;;;;;;20.66;57.97;99892.25;4946105;28;20097;-81
2022/05/11 06:32:01;;;;;;;18.52;14.02;;;;;;;20.70;58.19;99898.06;4975432;28;20042;-80
2022/05/11 06:34:27;;;;;;;18.55;14.73;;;;;;;20.69;58.16;99899.13;4988354;28;20077;-79
2022/05/11 06:36:54;;;;;;;17.00;13.57;;;;;;;20.73;58.30;99897.66;4949666;28;20050;-80
2022/05/11 06:39:23;;;;;;;16.40;14.10;;;;;;;20.78;58.33;99896.03;4964104;28;20049;-79
2022/05/11 06:41:50;;;;;;;20.63;14.00;;;;;;;20.87;58.16;99895.88;4951480;28;20129;-85
2022/05/11 06:44:16;;;;;;;19.45;14.25;;;;;;;20.95;57.95;99896.53;4978879;28;20089;-80
2022/05/11 06:46:44;;;;;;;19.65;13.43;;;;;;;20.96;57.92;99892.81;4946425;28;20506;-79
2022/05/11 06:49:11;;;;;;;22.90;14.48;;;;;;;20.97;58.25;99897.16;4962511;28;20050;-80
2022/05/11 06:51:38;;;;;;;21.05;13.93;;;;;;;21.00;58.48;99891.34;4963970;28;20057;-80
2022/05/11 06:59:35;;;;;;;18.42;13.02;;;;;;;21.09;57.91;99889.31;4972355;28;20664;-79
2022/05/11 07:02:06;;;;;;;15.63;13.27;;;;;;;21.02;57.89;99886.59;4974098;28;20123;-80
2022/05/11 07:04:35;;;;;;;19.95;14.23;;;;;;;21.06;57.55;99889.69;4952845;28;20078;-79
2022/05/11 07:07:03;;;;;;;23.35;14.73;;;;;;;20.98;57.92;99884.50;4952528;28;20046;-80
2022/05/11 07:09:32;;;;;;;18.90;13.10;;;;;;;20.98;58.17;99879.09;4951431;28;20328;-81
2022/05/11 07:12:21;;;;;;;17.42;13.02;;;;;;;20.98;58.59;99882.63;4976583;28;20070;-79
2022/05/11 07:14:53;;;;;;;20.42;13.80;;;;;;;20.97;58.10;99882.84;4988220;28;20554;-84
2022/05/11 07:17:33;;;;;;;20.05;13.18;;;;;;;21.05;57.99;99876.41;4964561;28;20085;-85
2022/05/11 07:20:09;;;;;;;20.08;13.02;;;;;;;21.02;58.09;99877.66;4946164;28;20054;-85
2022/05/11 07:22:38;;;;;;;17.58;12.48;;;;;;;21.08;58.27;99870.59;4988260;28;20053;-80
2022/05/11 07:25:07;;;;;;;19.27;13.38;;;;;;;21.09;57.90;99869.56;4967730;28;20069;-80
2022/05/11 07:27:34;;;;;;;19.20;13.75;;;;;;;21.09;57.99;99872.25;4977611;28;20138;-80
2022/05/11 07:30:05;;;;;;;16.90;12.05;;;;;;;21.08;58.24;99865.22;4969707;28;20490;-86
2022/05/11 07:32:33;;;;;;;17.92;12.80;;;;;;;21.11;58.22;99864.78;4970576;28;20042;-85
2022/05/11 07:35:00;;;;;;;19.15;13.15;;;;;;;21.17;58.67;99867.53;4953509;28;20069;-85
2022/05/11 07:37:27;;;;;;;17.05;12.00;;;;;;;21.21;58.52;99871.47;4969730;28;20042;-85
2022/05/11 07:39:55;;;;;;;16.48;11.38;;;;;;;21.24;58.55;99871.06;4983329;28;20232;-85
2022/05/11 07:42:22;;;;;;;16.55;12.50;;;;;;;21.29;58.59;99862.34;4974761;28;20410;-84
2022/05/11 07:44:50;;;;;;;15.48;11.68;;;;;;;21.34;58.35;99859.84;4981937;28;20141;-80
2022/05/11 07:47:17;;;;;;;19.33;12.52;;;;;;;21.42;58.39;99867.81;4961858;28;20580;-80
2022/05/11 07:49:43;;;;;;;18.48;11.23;;;;;;;21.41;58.64;99859.91;4952329;28;20402;-80
2022/05/11 07:52:10;;;;;;;15.93;11.55;;;;;;;21.46;58.92;99860.13;4992360;28;20050;-80
2022/05/11 07:54:38;;;;;;;17.35;11.68;;;;;;;21.53;58.13;99860.13;4968920;28;20110;-80
2022/05/11 07:59:57;;;;;;;17.35;12.75;;;;;;;21.61;58.00;99851.81;4921108;28;20042;-80
2022/05/11 08:02:26;;;;;;;;;;;;;;;21.40;58.95;99853.69;4943813;28;20676;-79
2022/05/11 08:04:59;;;;;;;16.25;11.05;;;;;;;21.65;58.31;99850.34;4978104;28;19927;-84
2022/05/11 08:07:29;;;;;;;13.65;10.77;;;;;;;21.78;58.21;99839.56;4965786;28;20516;-84
2022/05/11 08:09:57;;;;;;;14.55;11.43;;;;;;;21.84;57.92;99843.28;4972590;28;20054;-84
2022/05/11 08:12:24;;;;;;;17.58;11.02;;;;;;;21.83;58.44;99838.91;4965951;28;20694;-84
2022/05/11 08:14:51;;;;;;;17.83;10.35;;;;;;;21.82;58.48;99834.56;4930826;28;20113;-84
2022/05/11 08:17:29;;;;;;;14.02;10.77;;;;;;;21.84;58.16;99829.78;4998836;28;20065;-84
2022/05/11 08:19:56;;;;;;;16.90;10.40;;;;;;;21.95;58.01;99829.13;4974846;28;20052;-84
2022/05/11 08:22:24;;;;;;;15.60;10.57;;;;;;;21.97;58.04;99826.22;4960596;28;20510;-84
2022/05/11 08:24:51;;;;;;;14.55;10.20;;;;;;;21.95;58.02;99821.03;4978810;28;20042;-83
2022/05/11 08:27:20;;;;;;;13.52;9.98;;;;;;;22.03;58.23;99814.56;4953361;28;20042;-84
2022/05/11 08:35:40;;;;;;;13.93;8.90;;;;;;;22.13;58.06;99801.44;4925610;28;20094;-81
2022/05/11 08:38:07;;;;;;;13.05;9.05;;;;;;;22.23;57.76;99803.72;4988740;28;20049;-80
2022/05/11 08:40:36;;;;;;;10.38;7.75;;;;;;;22.25;57.94;99804.34;4978368;28;20050;-81
2022/05/11 08:43:05;;;;;;;15.90;9.15;;;;;;;22.28;57.61;99793.94;4984835;28;20046;-81
2022/05/11 08:45:39;;;;;;;11.07;8.32;;;;;;;22.36;57.11;99798.28;4955526;28;20042;-79
2022/05/11 08:48:09;;;;;;;10.93;8.10;;;;;;;22.43;57.15;99787.44;4957831;28;20078;-80
2022/05/11 08:50:38;;;;;;;13.80;7.25;;;;;;;22.43;56.36;99799.06;4955256;28;20383;-79
2022/05/11 08:53:13;;;;;;;9.32;7.07;;;;;;;22.52;55.25;99799.69;4942038;28;20630;-80
2022/05/11 08:55:45;;;;;;;10.52;5.93;;;;;;;22.54;55.17;99798.44;4975504;28;20434;-79
2022/05/11 08:58:28;;;;;;;8.60;6.85;;;;;;;22.58;53.94;99798.81;4976613;28;20046;-80
2022/05/11 09:00:56;;;;;;;8.20;6.75;;;;;;;22.77;54.16;99786.25;4945435;28;20402;-81
2022/05/11 09:03:41;;;;;;;12.13;6.80;;;;;;;22.74;53.53;99797.47;4988777;28;20086;-80
2022/05/11 09:06:18;;;;;;;8.27;6.20;;;;;;;22.84;54.32;99794.31;4976041;28;20094;-80
2022/05/11 09:08:44;;;;;;;7.60;6.15;;;;;;;22.92;54.04;99789.50;4961531;28;20063;-80
2022/05/11 09:11:15;;;;;;;6.93;5.88;;;;;;;22.88;53.40;99788.25;4939128;28;20094;-79
2022/05/11 09:13:42;;;;;;;9.02;6.13;;;;;;;23.01;52.97;99784.66;4951121;28;20055;-80
2022/05/11 09:16:20;;;;;;;6.93;5.80;;;;;;;23.00;52.07;99776.75;4938517;28;20047;-80
2022/05/11 09:18:47;;;;;;;6.43;5.82;;;;;;;23.08;53.62;99780.03;4916049;28;20059;-80
2022/05/11 09:21:30;;;;;;;7.32;5.55;;;;;;;23.13;52.46;99761.25;4959734;28;20051;-80
2022/05/11 09:24:23;;;;;;;6.97;5.45;;;;;;;23.04;50.01;99769.84;4973458;28;20043;-80
2022/05/11 09:27:03;;;;;;;6.45;5.80;;;;;;;23.15;50.02;99770.00;4932788;28;20423;-80
2022/05/11 09:29:39;;;;;;;6.82;5.13;;;;;;;23.16;48.50;99768.09;4977120;28;20043;-81
2022/05/11 09:32:32;;;;;;;6.43;5.18;;;;;;;23.13;48.72;99763.13;4968811;28;20043;-80
2022/05/11 09:35:14;;;;;;;8.13;4.78;;;;;;;23.18;48.76;99764.13;4961108;28;20055;-80
2022/05/11 09:37:42;;;;;;;6.68;4.97;;;;;;;23.38;49.72;99755.00;5006626;28;20115;-81
2022/05/11 09:40:16;;;;;;;7.80;5.05;;;;;;;23.41;48.82;99768.13;4963912;28;20043;-80
2022/05/11 09:43:05;;;;;;;6.85;5.72;;;;;;;23.31;46.98;99751.53;4982785;28;20042;-80
2022/05/11 09:45:49;;;;;;;7.20;5.05;;;;;;;23.38;47.77;99760.41;4962337;28;20050;-80
2022/05/11 09:48:25;;;;;;;6.47;5.60;;;;;;;23.46;47.25;99753.88;4958336;28;20046;-80
2022/05/11 09:50:54;;;;;;;8.55;5.40;;;;;;;23.60;48.63;99758.97;4956222;28;20053;-80
2022/05/11 09:53:23;;;;;;;5.82;5.32;;;;;;;23.60;48.63;99750.00;4949827;28;20205;-80
2022/05/11 09:55:51;;;;;;;6.50;5.70;;;;;;;23.60;49.50;99740.00;4969818;28;20408;-80
2022/05/11 09:58:32;;;;;;;6.78;5.65;;;;;;;23.59;47.33;99737.53;4956078;28;20347;-79
2022/05/11 10:01:26;;;;;;;6.05;5.47;;;;;;;23.64;47.03;99743.09;4928169;28;20054;-80
2022/05/11 10:04:03;;;;;;;6.18;5.28;;;;;;;23.68;46.66;99744.31;4891269;28;20163;-81
2022/05/11 10:06:52;;;;;;;10.82;6.10;;;;;;;23.84;47.71;99734.81;4960970;28;20038;-80
2022/05/11 10:09:26;;;;;;;6.72;5.95;;;;;;;23.83;47.04;99735.84;4954503;28;20093;-80
2022/05/11 10:11:53;;;;;;;8.60;5.10;;;;;;;23.87;47.56;99726.22;4963827;28;20056;-80
2022/05/11 10:23:37;;;;;;;10.23;5.95;;;;;;;23.99;45.22;99713.56;4939368;28;20128;-85
2022/05/11 10:26:08;;;;;;;6.28;5.20;;;;;;;24.08;45.61;99708.66;4930882;28;20065;-81
2022/05/11 10:28:49;;;;;;;8.17;5.70;;;;;;;24.14;45.54;99712.34;4936875;28;20050;-84
2022/05/11 10:31:34;;;;;;;6.47;5.47;;;;;;;24.12;45.22;99701.72;4934960;28;20046;-85
2022/05/11 10:34:10;;;;;;;6.68;5.65;;;;;;;24.12;44.89;99699.00;4943915;28;20062;-84
2022/05/11 10:36:50;;;;;;;8.95;5.95;;;;;;;24.14;45.23;99696.88;4944285;28;20054;-83
2022/05/11 10:39:41;;;;;;;7.35;5.85;;;;;;;24.12;44.71;99699.00;4931136;28;20101;-81
2022/05/11 10:42:13;;;;;;;6.07;5.32;;;;;;;24.19;44.08;99696.19;4940093;28;20959;-81
2022/05/11 10:45:17;;;;;;;8.05;5.45;;;;;;;24.20;44.15;99682.41;4936614;28;20109;-81
2022/05/11 10:48:21;;;;;;;6.70;5.15;;;;;;;24.10;44.22;99682.13;4954748;28;20681;-80
2022/05/11 10:51:03;;;;;;;10.55;5.82;;;;;;;24.08;43.68;99681.53;4939454;28;20065;-81
2022/05/11 10:53:43;;;;;;;7.97;5.57;;;;;;;24.22;45.15;99682.16;4920782;28;20118;-80
2022/05/11 10:56:27;;;;;;;10.70;5.00;;;;;;;24.14;43.78;99679.78;4939922;28;20152;-80
2022/05/11 10:59:12;;;;;;;7.38;5.65;;;;;;;24.28;45.09;99667.72;4954658;28;20085;-81
2022/05/11 11:02:01;;;;;;;5.97;5.35;;;;;;;24.20;44.41;99674.28;4968322;28;20166;-81
2022/05/11 11:04:37;;;;;;;8.60;5.72;;;;;;;24.31;43.52;99663.69;4936211;28;20414;-80
2022/05/11 11:07:38;;;;;;;7.50;5.40;;;;;;;24.33;43.88;99659.69;4981737;28;20038;-79
2022/05/11 11:10:23;;;;;;;6.63;5.90;;;;;;;24.37;45.04;99654.63;4941079;28;20046;-80
2022/05/11 11:13:29;;;;;;;6.75;5.15;;;;;;;24.32;42.80;99649.06;4979727;28;20056;-79
2022/05/11 11:15:57;;;;;;;7.28;5.75;;;;;;;24.47;44.48;99653.06;4937477;28;20046;-79
2022/05/11 11:18:37;;;;;;;9.80;5.55;;;;;;;24.52;43.68;99637.97;4990998;28;20142;-80
2022/05/11 11:21:06;;;;;;;9.27;4.78;;;;;;;24.55;43.19;99640.19;4955631;28;20051;-80
2022/05/11 11:23:36;;;;;;;5.82;4.93;;;;;;;24.57;43.78;99633.47;4969814;28;20066;-80
2022/05/11 11:26:11;;;;;;;7.65;5.63;;;;;;;24.50;42.71;99634.63;4957104;28;20134;-81
2022/05/11 11:28:41;;;;;;;6.03;5.45;;;;;;;24.62;43.82;99638.22;4970133;28;20417;-81
2022/05/11 11:31:10;;;;;;;5.95;5.35;;;;;;;24.61;43.53;99631.16;5002706;28;20060;-80
2022/05/11 11:33:39;;;;;;;6.25;5.28;;;;;;;24.68;43.46;99618.31;4990568;28;20049;-80
2022/05/11 11:36:18;;;;;;;9.93;4.88;;;;;;;24.67;40.90;99628.31;4970790;28;20050;-80
2022/05/11 11:38:47;;;;;;;6.72;5.47;;;;;;;24.68;42.20;99621.84;4950316;28;20043;-80
2022/05/11 11:41:28;;;;;;;6.88;4.65;;;;;;;24.67;41.35;99612.03;4969477;28;20058;-80
2022/05/11 11:43:59;;;;;;;13.40;5.20;;;;;;;24.79;42.61;99620.19;4957175;28;20042;-80
2022/05/11 11:46:34;;;;;;;6.88;5.93;;;;;;;24.78;42.71;99613.13;4995246;28;20187;-81
2022/05/11 11:49:07;;;;;;;10.15;5.43;;;;;;;24.81;42.79;99609.94;4947095;28;20047;-80
2022/05/11 11:51:49;;;;;;;7.72;5.18;;;;;;;24.79;41.96;99606.63;4965145;28;20054;-86
2022/05/11 11:54:38;;;;;;;7.67;5.33;;;;;;;24.84;40.26;99604.03;4973214;28;20042;-85
2022/05/11 11:57:16;;;;;;;7.80;5.80;;;;;;;24.86;40.73;99607.34;4941804;28;20167;-85
2022/05/11 11:59:49;;;;;;;7.15;4.85;;;;;;;24.93;41.30;99593.63;4959341;28;20040;-85
2022/05/11 12:02:23;;;;;;;;;;;;;;;24.95;40.44;99609.69;4977006;28;20446;-87
2022/05/11 12:05:01;;;;;;;7.28;5.10;;;;;;;24.97;39.74;99602.16;4975767;28;19929;-80
2022/05/11 12:16:24;;;;;;;8.13;5.57;;;;;;;25.20;41.08;99579.59;4953787;28;20089;-80
2022/05/11 12:18:52;;;;;;;7.82;4.90;;;;;;;25.22;41.20;99585.63;4969044;28;20107;-81
2022/05/11 12:21:32;;;;;;;6.47;5.07;;;;;;;25.18;39.87;99587.16;4965928;28;20049;-80
2022/05/11 12:24:03;;;;;;;7.35;5.28;;;;;;;25.27;41.05;99574.88;4995990;28;20071;-80